createdAt,value
2018-01-25T00:01:40.306Z,12.00
2018-01-25T00:03:44.413Z,7.17
2018-01-25T00:05:47.760Z,8.70
2018-01-25T00:07:51.099Z,10.60
2018-01-25T00:09:54.447Z,6.63
2018-01-25T00:11:57.781Z,8.03
2018-01-25T00:14:01.102Z,8.20
2018-01-25T00:16:04.462Z,7.87
2018-01-25T00:18:07.793Z,8.20
2018-01-25T00:20:11.133Z,7.27
2018-01-25T00:22:14.443Z,8.90
2018-01-25T00:24:18.555Z,8.27
2018-01-25T00:26:21.846Z,10.77
2018-01-25T00:28:25.159Z,9.20
2018-01-25T00:30:28.513Z,10.73
2018-01-25T00:32:31.821Z,9.67
2018-01-25T00:34:35.132Z,10.20
2018-01-25T00:36:38.434Z,9.97
2018-01-25T00:38:41.753Z,8.10
2018-01-25T00:40:45.052Z,8.43
2018-01-25T00:42:48.355Z,8.60
2018-01-25T00:44:51.673Z,12.50
2018-01-25T00:46:55.827Z,9.70
2018-01-25T00:48:59.125Z,9.63
2018-01-25T00:51:02.433Z,9.10
2018-01-25T00:53:05.749Z,8.80
2018-01-25T00:55:09.837Z,15.73
2018-01-25T00:57:13.158Z,9.33
2018-01-25T00:59:16.523Z,8.90
2018-01-25T01:01:19.839Z,9.80
2018-01-25T01:03:23.171Z,9.10
2018-01-25T01:05:26.481Z,10.13
2018-01-25T01:07:29.786Z,5.50
2018-01-25T01:09:33.893Z,7.83
2018-01-25T01:11:37.199Z,7.53
2018-01-25T01:13:40.501Z,8.30
2018-01-25T01:15:43.812Z,9.80
2018-01-25T01:17:47.194Z,6.00
2018-01-25T01:19:50.534Z,9.60
2018-01-25T01:21:53.844Z,8.67
2018-01-25T01:23:57.168Z,6.90
2018-01-25T01:26:01.346Z,8.20
2018-01-25T01:28:04.691Z,7.20
2018-01-25T01:30:08.034Z,9.43
2018-01-25T01:32:12.123Z,9.50
2018-01-25T01:34:16.285Z,7.63
2018-01-25T01:36:19.583Z,9.20
2018-01-25T01:38:23.660Z,13.20
2018-01-25T01:40:26.981Z,6.50
2018-01-25T01:42:30.295Z,7.87
2018-01-25T01:44:33.646Z,10.43
2018-01-25T01:46:38.410Z,7.60
2018-01-25T01:48:41.723Z,9.23
2018-01-25T01:50:45.042Z,6.10
2018-01-25T01:52:48.358Z,5.50
2018-01-25T01:54:51.697Z,7.77
2018-01-25T01:56:55.012Z,10.60
2018-01-25T01:58:59.090Z,5.77
2018-01-25T02:01:02.423Z,6.17
2018-01-25T02:03:05.737Z,5.83
2018-01-25T02:05:09.069Z,5.87
2018-01-25T02:07:12.376Z,6.80
2018-01-25T02:09:15.726Z,4.90
2018-01-25T02:11:19.025Z,7.07
2018-01-25T02:13:22.362Z,6.13
2018-01-25T02:15:25.707Z,7.37
2018-01-25T02:17:29.029Z,6.23
2018-01-25T02:19:32.336Z,5.20
2018-01-25T02:21:35.641Z,5.50
2018-01-25T02:23:39.717Z,11.03
2018-01-25T02:25:43.815Z,6.30
2018-01-25T02:27:47.128Z,6.37
2018-01-25T02:29:51.198Z,4.77
2018-01-25T02:31:54.531Z,5.23
2018-01-25T02:33:58.606Z,9.50
2018-01-25T02:36:01.927Z,5.80
2018-01-25T02:38:05.992Z,7.50
2018-01-25T02:40:09.310Z,7.47
2018-01-25T02:42:12.635Z,9.53
2018-01-25T02:44:15.982Z,5.20
2018-01-25T02:46:19.307Z,6.97
2018-01-25T02:48:22.627Z,6.07
2018-01-25T02:50:25.940Z,5.33
2018-01-25T02:52:29.248Z,5.60
2018-01-25T02:54:32.574Z,9.30
2018-01-25T02:56:35.931Z,8.73
2018-01-25T02:58:39.255Z,7.20
2018-01-25T03:00:42.596Z,6.87
2018-01-25T03:02:45.969Z,8.97
2018-01-25T03:04:50.167Z,5.00
2018-01-25T03:06:53.510Z,4.70
2018-01-25T03:08:56.855Z,11.20
2018-01-25T03:11:00.994Z,6.60
2018-01-25T03:13:04.312Z,4.30
2018-01-25T03:15:08.414Z,11.37
2018-01-25T03:17:11.786Z,6.23
2018-01-25T03:19:15.263Z,8.20
2018-01-25T03:21:18.579Z,8.57
2018-01-25T03:23:21.893Z,8.57
2018-01-25T03:25:25.973Z,8.80
2018-01-25T03:27:29.314Z,8.03
2018-01-25T03:29:32.624Z,8.10
2018-01-25T03:31:35.970Z,5.13
2018-01-25T03:33:39.289Z,7.30
2018-01-25T03:35:42.617Z,8.27
2018-01-25T03:37:46.023Z,7.07
2018-01-25T03:39:49.342Z,9.63
2018-01-25T03:41:52.691Z,9.30
2018-01-25T03:43:56.769Z,7.63
2018-01-25T03:46:00.326Z,10.30
2018-01-25T03:48:04.690Z,6.77
2018-01-25T03:50:08.027Z,7.27
2018-01-25T03:52:11.341Z,5.60
2018-01-25T03:54:14.688Z,10.77
2018-01-25T03:56:18.079Z,4.40
2018-01-25T03:58:21.417Z,7.93
2018-01-25T04:00:24.742Z,6.43
2018-01-25T04:02:28.079Z,7.20
2018-01-25T04:04:32.186Z,7.20
2018-01-25T04:06:35.504Z,11.13
2018-01-25T04:08:38.842Z,5.07
2018-01-25T04:10:42.163Z,7.50
2018-01-25T04:12:46.246Z,9.97
2018-01-25T04:14:49.584Z,10.23
2018-01-25T04:16:52.946Z,6.17
2018-01-25T04:18:56.334Z,12.20
2018-01-25T04:20:59.670Z,8.33
2018-01-25T04:23:03.010Z,9.17
2018-01-25T04:25:06.611Z,8.37
2018-01-25T04:27:09.952Z,6.60
2018-01-25T04:29:13.316Z,9.43
2018-01-25T04:31:16.686Z,7.87
2018-01-25T04:33:20.250Z,8.20
2018-01-25T04:35:23.576Z,9.13
2018-01-25T04:37:26.920Z,7.90
2018-01-25T04:39:30.236Z,10.20
2018-01-25T04:41:33.552Z,6.93
2018-01-25T04:43:36.885Z,10.73
2018-01-25T04:45:40.213Z,4.23
2018-01-25T04:47:43.531Z,9.80
2018-01-25T04:49:46.851Z,11.10
2018-01-25T04:51:50.212Z,8.83
2018-01-25T04:53:54.293Z,14.87
2018-01-25T04:55:57.606Z,11.57
2018-01-25T04:58:00.931Z,11.00
2018-01-25T05:00:04.291Z,12.07
2018-01-25T05:02:08.383Z,10.43
2018-01-25T05:04:11.677Z,7.90
2018-01-25T05:06:14.980Z,8.10
2018-01-25T05:08:18.288Z,11.37
2018-01-25T05:10:21.654Z,12.80
2018-01-25T05:12:24.989Z,10.77
2018-01-25T05:14:28.339Z,16.13
2018-01-25T05:16:31.991Z,11.70
2018-01-25T05:18:35.329Z,10.90
2018-01-25T05:20:38.811Z,9.87
2018-01-25T05:22:42.984Z,10.40
2018-01-25T05:24:46.346Z,9.07
2018-01-25T05:26:50.441Z,9.23
2018-01-25T05:28:53.990Z,11.13
2018-01-25T05:30:57.784Z,10.87
2018-01-25T05:33:01.161Z,11.80
2018-01-25T05:35:04.493Z,7.00
2018-01-25T05:37:07.844Z,9.10
2018-01-25T05:39:11.516Z,10.33
2018-01-25T05:41:14.907Z,11.33
2018-01-25T05:43:18.395Z,7.37
2018-01-25T05:45:21.948Z,8.27
2018-01-25T05:47:25.322Z,12.13
2018-01-25T05:49:28.673Z,11.63
2018-01-25T05:51:31.993Z,6.77
2018-01-25T05:53:35.349Z,14.47
2018-01-25T05:55:38.680Z,10.33
2018-01-25T05:57:42.037Z,11.27
2018-01-25T05:59:45.371Z,9.20
2018-01-25T06:01:48.694Z,7.80
2018-01-25T06:03:52.051Z,8.87
2018-01-25T06:05:56.430Z,10.00
2018-01-25T06:07:59.958Z,10.63
2018-01-25T06:10:03.406Z,8.10
2018-01-25T06:12:08.498Z,12.30
2018-01-25T06:14:11.868Z,8.13
2018-01-25T06:16:15.234Z,7.90
2018-01-25T06:18:19.424Z,6.23
2018-01-25T06:20:23.502Z,10.53
2018-01-25T06:22:26.846Z,13.37
2018-01-25T06:24:30.219Z,15.20
2018-01-25T06:26:33.619Z,8.27
2018-01-25T06:28:37.672Z,13.10
2018-01-25T06:30:41.031Z,8.17
2018-01-25T06:32:44.398Z,7.70
2018-01-25T06:34:47.966Z,15.40
2018-01-25T06:36:51.135Z,7.70
2018-01-25T06:38:54.489Z,8.50
2018-01-25T06:40:58.049Z,10.03
2018-01-25T06:43:01.393Z,8.03
2018-01-25T06:45:04.733Z,10.30
2018-01-25T06:47:08.310Z,14.20
2018-01-25T06:49:11.719Z,10.07
2018-01-25T06:51:15.117Z,11.10
2018-01-25T06:53:18.533Z,12.67
2018-01-25T06:55:22.778Z,8.80
2018-01-25T06:57:26.907Z,9.43
2018-01-25T06:59:30.280Z,8.80
2018-01-25T07:01:34.369Z,11.37
2018-01-25T07:03:37.736Z,15.93
2018-01-25T07:05:41.068Z,8.10
2018-01-25T07:07:44.408Z,8.27
2018-01-25T07:09:47.777Z,8.83
2018-01-25T07:11:51.165Z,11.20
2018-01-25T07:13:54.519Z,13.47
2018-01-25T07:15:57.908Z,10.57
2018-01-25T07:18:02.029Z,13.83
2018-01-25T07:20:06.158Z,10.27
2018-01-25T07:22:09.544Z,10.00
2018-01-25T07:24:12.916Z,16.10
2018-01-25T07:26:17.790Z,12.03
2018-01-25T07:28:21.860Z,9.63
2018-01-25T07:30:26.003Z,11.33
2018-01-25T07:32:29.356Z,16.80
2018-01-25T07:34:32.668Z,9.50
2018-01-25T07:36:36.014Z,10.10
2018-01-25T07:38:39.417Z,8.40
2018-01-25T07:40:43.546Z,11.20
2018-01-25T07:42:46.955Z,7.30
2018-01-25T07:44:51.540Z,10.80
2018-01-25T07:46:55.652Z,8.13
2018-01-25T07:48:59.051Z,10.23
2018-01-25T07:51:03.199Z,9.40
2018-01-25T07:53:06.627Z,9.40
2018-01-25T07:55:10.277Z,8.67
2018-01-25T07:57:27.199Z,13.07
2018-01-25T07:59:30.608Z,11.73
2018-01-25T08:01:34.017Z,11.10
2018-01-25T08:03:37.422Z,11.13
2018-01-25T08:05:41.376Z,10.27
2018-01-25T08:07:44.713Z,11.40
2018-01-25T08:09:48.057Z,9.77
2018-01-25T08:11:51.545Z,13.07
2018-01-25T08:13:55.667Z,11.53
2018-01-25T08:16:04.761Z,13.50
2018-01-25T08:18:08.893Z,10.03
2018-01-25T08:20:12.592Z,12.33
2018-01-25T08:22:15.997Z,11.00
2018-01-25T08:24:20.923Z,8.23
2018-01-25T08:26:24.460Z,14.77
2018-01-25T08:28:27.996Z,7.40
2018-01-25T08:30:32.706Z,13.10
2018-01-25T08:32:36.852Z,14.60
2018-01-25T08:34:40.269Z,8.60
2018-01-25T08:36:44.478Z,9.30
2018-01-25T08:38:48.565Z,14.87
2018-01-25T08:40:52.229Z,7.60
2018-01-25T08:42:56.369Z,10.93
2018-01-25T08:44:59.872Z,8.70
2018-01-25T08:47:03.207Z,8.30
2018-01-25T08:49:06.580Z,6.80
2018-01-25T08:51:09.911Z,8.17
2018-01-25T08:53:14.065Z,12.20
2018-01-25T08:55:17.518Z,14.03
2018-01-25T08:57:22.732Z,6.20
2018-01-25T08:59:26.114Z,9.87
2018-01-25T09:01:29.505Z,8.23
2018-01-25T09:03:32.897Z,11.90
2018-01-25T09:05:36.330Z,8.10
2018-01-25T09:07:40.974Z,9.20
2018-01-25T09:09:44.557Z,10.37
2018-01-25T09:11:48.035Z,8.40
2018-01-25T09:13:53.220Z,7.87
2018-01-25T09:15:56.793Z,11.00
2018-01-25T09:18:02.372Z,7.27
2018-01-25T09:20:06.574Z,7.73
2018-01-25T09:22:10.796Z,7.10
2018-01-25T09:24:14.210Z,7.57
2018-01-25T09:26:17.544Z,7.23
2018-01-25T09:28:20.985Z,6.67
2018-01-25T09:30:25.907Z,6.90
2018-01-25T09:32:29.308Z,7.13
2018-01-25T09:34:33.816Z,6.50
2018-01-25T09:36:37.958Z,8.10
2018-01-25T09:38:41.401Z,6.80
2018-01-25T09:40:44.816Z,7.20
2018-01-25T09:42:50.013Z,9.20
2018-01-25T09:44:53.881Z,8.03
2018-01-25T09:46:57.299Z,7.70
2018-01-25T09:49:01.374Z,4.70
2018-01-25T09:51:04.763Z,8.23
2018-01-25T09:53:08.274Z,7.10
2018-01-25T09:55:11.703Z,5.53
2018-01-25T09:57:16.335Z,9.50
2018-01-25T09:59:19.746Z,9.90
2018-01-25T10:01:23.254Z,7.53
2018-01-25T10:03:28.193Z,7.73
2018-01-25T10:05:32.231Z,6.30
2018-01-25T10:07:36.331Z,6.27
2018-01-25T10:09:40.443Z,5.40
2018-01-25T10:11:43.919Z,8.57
2018-01-25T10:13:48.187Z,9.60
2018-01-25T10:15:51.628Z,9.47
2018-01-25T10:17:55.885Z,8.63
2018-01-25T10:20:01.414Z,8.40
2018-01-25T10:22:05.017Z,6.47
2018-01-25T10:24:09.454Z,6.33
2018-01-25T10:26:14.395Z,8.33
2018-01-25T10:28:19.892Z,9.20
2018-01-25T10:30:23.297Z,7.33
2018-01-25T10:32:26.727Z,9.20
2018-01-25T10:34:32.039Z,6.90
2018-01-25T10:36:35.463Z,5.93
2018-01-25T10:38:39.660Z,7.57
2018-01-25T10:40:43.859Z,8.93
2018-01-25T10:42:48.764Z,8.20
2018-01-25T10:44:52.841Z,8.43
2018-01-25T10:46:56.953Z,12.90
2018-01-25T10:49:01.234Z,7.87
2018-01-25T10:51:05.824Z,8.63
2018-01-25T10:53:09.275Z,9.90
2018-01-25T10:55:16.937Z,9.73
2018-01-25T10:57:26.617Z,7.53
2018-01-25T10:59:31.189Z,9.60
2018-01-25T11:01:41.703Z,14.67
2018-01-25T11:03:46.149Z,9.33
2018-01-25T11:05:49.515Z,13.80
2018-01-25T11:07:53.804Z,10.23
2018-01-25T11:09:58.052Z,9.10
2018-01-25T11:12:01.418Z,12.80
2018-01-25T11:14:05.258Z,14.60
2018-01-25T11:16:09.455Z,14.50
2018-01-25T11:18:12.830Z,12.43
2018-01-25T11:20:17.065Z,13.37
2018-01-25T11:22:20.463Z,12.60
2018-01-25T11:24:25.138Z,16.20
2018-01-25T11:26:28.621Z,11.57
2018-01-25T11:28:31.941Z,14.23
2018-01-25T11:30:38.351Z,14.50
2018-01-25T11:32:42.639Z,12.60
2018-01-25T11:34:46.292Z,9.40
2018-01-25T11:36:51.772Z,15.33
2018-01-25T11:38:55.124Z,14.43
2018-01-25T11:40:59.694Z,10.13
2018-01-25T11:43:04.438Z,11.60
2018-01-25T11:45:09.169Z,15.30
2018-01-25T11:47:14.089Z,11.27
2018-01-25T11:49:17.779Z,10.73
2018-01-25T11:51:21.315Z,14.13
2018-01-25T11:53:25.647Z,15.10
2018-01-25T11:55:29.136Z,11.80
2018-01-25T11:57:33.306Z,12.57
2018-01-25T11:59:36.724Z,17.33
2018-01-25T12:01:40.244Z,17.43
2018-01-25T12:03:43.676Z,17.43
2018-01-25T12:05:47.073Z,13.47
2018-01-25T12:07:50.677Z,12.80
2018-01-25T12:09:54.011Z,16.83
2018-01-25T12:12:02.616Z,13.90
2018-01-25T12:14:07.294Z,9.67
2018-01-25T12:16:10.661Z,13.80
2018-01-25T12:18:14.809Z,12.57
2018-01-25T12:20:19.412Z,15.57
2018-01-25T12:22:23.110Z,11.03
2018-01-25T12:24:26.531Z,9.10
2018-01-25T12:26:30.029Z,13.70
2018-01-25T12:28:33.494Z,11.27
2018-01-25T12:30:36.906Z,14.30
2018-01-25T12:32:40.284Z,13.13
2018-01-25T12:34:43.674Z,12.27
2018-01-25T12:36:47.066Z,14.70
2018-01-25T12:38:50.590Z,10.40
2018-01-25T12:40:54.144Z,14.97
2018-01-25T12:43:02.064Z,10.37
2018-01-25T12:45:05.491Z,12.43
2018-01-25T12:47:09.789Z,11.67
2018-01-25T12:49:16.092Z,19.80
2018-01-25T12:51:21.414Z,14.20
2018-01-25T12:53:25.914Z,13.93
2018-01-25T12:55:30.204Z,11.10
2018-01-25T12:57:36.277Z,12.00
2018-01-25T12:59:40.616Z,9.70
2018-01-25T13:01:44.914Z,14.07
2018-01-25T13:03:48.294Z,17.53
2018-01-25T13:05:55.463Z,11.20
2018-01-25T13:07:59.762Z,10.37
2018-01-25T13:10:03.694Z,10.90
2018-01-25T13:12:07.311Z,14.80
2018-01-25T13:14:10.925Z,13.73
2018-01-25T13:16:15.430Z,17.53
2018-01-25T13:18:19.702Z,10.67
2018-01-25T13:20:28.348Z,17.50
2018-01-25T13:22:32.665Z,11.93
2018-01-25T13:24:36.834Z,9.40
2018-01-25T13:26:40.182Z,11.30
2018-01-25T13:28:45.713Z,14.50
2018-01-25T13:30:49.166Z,13.90
2018-01-25T13:32:58.191Z,12.37
2018-01-25T13:35:01.596Z,10.53
2018-01-25T13:37:05.497Z,15.43
2018-01-25T13:39:08.825Z,11.80
2018-01-25T13:41:12.183Z,10.13
2018-01-25T13:43:15.505Z,14.33
2018-01-25T13:45:18.856Z,10.27
2018-01-25T13:47:22.279Z,13.13
2018-01-25T13:49:26.470Z,12.90
2018-01-25T13:51:30.265Z,17.20
2018-01-25T13:53:33.583Z,19.47
2018-01-25T13:55:36.903Z,14.43
2018-01-25T13:57:40.992Z,13.13
2018-01-25T13:59:45.536Z,12.53
2018-01-25T14:01:51.584Z,15.93
2018-01-25T14:03:55.060Z,18.60
2018-01-25T14:05:58.462Z,15.37
2018-01-25T14:08:01.789Z,23.50
2018-01-25T14:10:05.212Z,12.70
2018-01-25T14:12:08.774Z,12.90
2018-01-25T14:14:12.204Z,12.70
2018-01-25T14:16:18.700Z,11.87
2018-01-25T14:18:22.415Z,25.07
2018-01-25T14:20:26.095Z,14.17
2018-01-25T14:22:29.405Z,13.00
2018-01-25T14:24:33.493Z,16.67
2018-01-25T14:26:37.085Z,14.27
2018-01-25T14:28:40.608Z,15.07
2018-01-25T14:30:45.473Z,15.67
2018-01-25T14:32:49.322Z,15.90
2018-01-25T14:34:53.943Z,10.90
2018-01-25T14:36:57.625Z,14.70
2018-01-25T14:39:01.250Z,22.70
2018-01-25T14:41:04.766Z,21.37
2018-01-25T14:43:08.137Z,21.43
2018-01-25T14:45:12.335Z,18.87
2018-01-25T14:47:15.771Z,15.60
2018-01-25T14:49:19.112Z,22.63
2018-01-25T14:51:22.495Z,21.77
2018-01-25T14:53:35.980Z,17.60
2018-01-25T14:55:39.906Z,20.30
2018-01-25T14:57:43.282Z,19.80
2018-01-25T14:59:46.897Z,20.60
2018-01-25T15:01:50.361Z,21.43
2018-01-25T15:03:54.656Z,21.50
2018-01-25T15:05:58.772Z,18.90
2018-01-25T15:08:02.878Z,32.80
2018-01-25T15:10:06.245Z,18.23
2018-01-25T15:12:09.611Z,17.67
2018-01-25T15:14:13.173Z,19.47
2018-01-25T15:16:16.581Z,18.47
2018-01-25T15:18:21.152Z,18.97
2018-01-25T15:20:24.773Z,18.87
2018-01-25T15:22:28.780Z,17.03
2018-01-25T15:24:32.913Z,24.13
2018-01-25T15:26:38.438Z,17.83
2018-01-25T15:28:42.633Z,18.27
2018-01-25T15:30:47.404Z,18.47
2018-01-25T15:32:50.849Z,17.50
2018-01-25T15:34:56.291Z,16.23
2018-01-25T15:37:00.426Z,15.07
2018-01-25T15:39:11.149Z,16.10
2018-01-25T15:41:15.124Z,19.93
2018-01-25T15:43:18.594Z,16.73
2018-01-25T15:45:21.965Z,13.77
2018-01-25T15:47:26.489Z,21.90
2018-01-25T15:49:29.839Z,20.13
2018-01-25T15:51:33.779Z,19.97
2018-01-25T15:53:37.316Z,15.60
2018-01-25T15:55:40.669Z,16.60
2018-01-25T15:57:48.938Z,20.07
2018-01-25T15:59:52.395Z,27.03
2018-01-25T16:01:56.018Z,31.80
2018-01-25T16:03:59.485Z,19.30
2018-01-25T16:06:03.767Z,36.10
2018-01-25T16:08:08.227Z,28.23
2018-01-25T16:10:11.570Z,26.63
2018-01-25T16:12:15.358Z,20.90
2018-01-25T16:14:19.495Z,20.97
2018-01-25T16:16:22.949Z,22.53
2018-01-25T16:18:26.370Z,37.97
2018-01-25T16:20:31.449Z,28.97
2018-01-25T16:22:35.563Z,28.00
2018-01-25T16:24:40.699Z,31.53
2018-01-25T16:26:44.118Z,31.97
2018-01-25T16:28:48.056Z,28.67
2018-01-25T16:30:52.229Z,33.77
2018-01-25T16:32:55.734Z,31.30
2018-01-25T16:35:00.341Z,35.60
2018-01-25T16:37:04.884Z,22.80
2018-01-25T16:39:09.415Z,26.03
2018-01-25T16:41:13.345Z,38.83
2018-01-25T16:43:16.797Z,32.70
2018-01-25T16:45:20.303Z,24.53
2018-01-25T16:47:25.217Z,21.33
2018-01-25T16:49:28.907Z,24.13
2018-01-25T16:51:32.606Z,27.73
2018-01-25T16:53:36.012Z,22.10
2018-01-25T16:55:39.386Z,24.03
2018-01-25T16:57:43.630Z,20.87
2018-01-25T16:59:47.754Z,19.60
2018-01-25T17:01:51.174Z,21.60
2018-01-25T17:03:54.616Z,19.27
2018-01-25T17:05:59.807Z,20.93
2018-01-25T17:08:04.624Z,19.60
2018-01-25T17:10:08.846Z,18.00
2018-01-25T17:12:12.259Z,20.10
2018-01-25T17:14:16.412Z,27.07
2018-01-25T17:16:19.785Z,14.73
2018-01-25T17:18:23.123Z,14.50
2018-01-25T17:20:26.445Z,24.53
2018-01-25T17:22:29.863Z,16.20
2018-01-25T17:24:33.256Z,12.73
2018-01-25T17:26:36.746Z,15.77
2018-01-25T17:28:40.120Z,20.40
2018-01-25T17:30:43.787Z,17.13
2018-01-25T17:32:48.144Z,17.97
2018-01-25T17:34:51.756Z,13.50
2018-01-25T17:36:55.128Z,14.10
2018-01-25T17:38:58.869Z,16.33
2018-01-25T17:41:02.435Z,18.57
2018-01-25T17:43:06.230Z,25.43
2018-01-25T17:45:09.929Z,18.30
2018-01-25T17:47:15.347Z,17.80
2018-01-25T17:49:18.659Z,15.40
2018-01-25T17:51:23.605Z,12.70
2018-01-25T17:53:28.117Z,14.00
2018-01-25T17:55:32.077Z,12.67
2018-01-25T17:57:35.649Z,13.83
2018-01-25T17:59:39.005Z,13.67
2018-01-25T18:01:43.430Z,11.30
2018-01-25T18:03:47.182Z,15.80
2018-01-25T18:05:50.960Z,10.40
2018-01-25T18:07:54.320Z,15.80
2018-01-25T18:09:57.664Z,16.80
2018-01-25T18:12:01.933Z,23.83
2018-01-25T18:14:06.864Z,27.43
2018-01-25T18:16:10.258Z,27.50
2018-01-25T18:18:21.191Z,22.97
2018-01-25T18:20:25.296Z,21.90
2018-01-25T18:22:29.557Z,21.53
2018-01-25T18:24:34.131Z,22.27
2018-01-25T18:26:38.425Z,23.30
2018-01-25T18:28:41.892Z,22.73
2018-01-25T18:30:47.664Z,19.70
2018-01-25T18:32:51.350Z,21.77
2018-01-25T18:34:54.714Z,32.73
2018-01-25T18:36:59.055Z,23.00
2018-01-25T18:39:02.657Z,32.63
2018-01-25T18:41:06.333Z,34.97
2018-01-25T18:43:10.997Z,29.60
2018-01-25T18:45:14.379Z,30.60
2018-01-25T18:47:20.624Z,29.97
2018-01-25T18:49:27.965Z,33.67
2018-01-25T18:51:31.614Z,24.70
2018-01-25T18:53:35.037Z,26.57
2018-01-25T18:55:39.442Z,26.10
2018-01-25T18:57:42.861Z,29.53
2018-01-25T18:59:47.446Z,28.40
2018-01-25T19:01:50.919Z,25.17
2018-01-25T19:03:54.655Z,31.57
2018-01-25T19:05:58.555Z,26.23
2018-01-25T19:08:02.058Z,28.10
2018-01-25T19:10:05.985Z,31.73
2018-01-25T19:12:11.228Z,32.50
2018-01-25T19:14:14.658Z,32.50
2018-01-25T19:16:20.295Z,26.63
2018-01-25T19:18:26.488Z,25.47
2018-01-25T19:20:29.948Z,26.50
2018-01-25T19:22:33.282Z,26.00
2018-01-25T19:24:36.710Z,26.97
2018-01-25T19:26:40.101Z,27.47
2018-01-25T19:28:43.661Z,28.70
2018-01-25T19:30:47.058Z,32.80
2018-01-25T19:32:51.009Z,24.10
2018-01-25T19:34:55.081Z,22.53
2018-01-25T19:36:59.375Z,28.47
2018-01-25T19:39:02.830Z,34.53
2018-01-25T19:41:08.112Z,25.03
2018-01-25T19:43:13.269Z,27.73
2018-01-25T19:45:17.853Z,27.73
2018-01-25T19:47:22.465Z,32.10
2018-01-25T19:49:28.524Z,30.03
2018-01-25T19:53:44.450Z,33.57
2018-01-25T19:55:48.240Z,32.70
2018-01-25T19:57:52.672Z,34.67
2018-01-25T19:59:58.374Z,36.50
2018-01-25T20:02:02.208Z,38.90
2018-01-25T20:04:08.599Z,38.23
2018-01-25T20:06:12.895Z,35.97
2018-01-25T20:08:16.401Z,35.37
2018-01-25T20:10:21.247Z,32.90
2018-01-25T20:12:28.539Z,28.17
2018-01-25T20:14:32.014Z,36.50
2018-01-25T20:16:35.338Z,20.40
2018-01-25T20:18:38.729Z,26.80
2018-01-25T20:20:42.062Z,21.50
2018-01-25T20:22:45.401Z,12.70
2018-01-25T20:24:51.439Z,13.80
2018-01-25T20:26:54.760Z,16.00
2018-01-25T20:28:59.048Z,33.60
2018-01-25T20:31:02.480Z,20.60
2018-01-25T20:33:05.874Z,27.13
2018-01-25T20:35:09.253Z,25.43
2018-01-25T20:37:13.369Z,23.97
2018-01-25T20:39:17.295Z,26.27
2018-01-25T20:41:21.202Z,14.63
2018-01-25T20:43:24.514Z,14.67
2018-01-25T20:45:27.845Z,13.47
2018-01-25T20:47:32.264Z,9.10
2018-01-25T20:49:35.942Z,8.70
2018-01-25T20:51:39.546Z,8.53
2018-01-25T20:53:43.012Z,9.87
2018-01-25T20:55:46.459Z,8.23
2018-01-25T20:57:51.569Z,6.57
2018-01-25T20:59:55.057Z,8.07
2018-01-25T21:01:59.133Z,11.73
2018-01-25T21:04:02.869Z,6.27
2018-01-25T21:06:08.222Z,10.70
2018-01-25T21:08:11.797Z,8.07
2018-01-25T21:10:17.741Z,9.60
2018-01-25T21:12:21.988Z,8.07
2018-01-25T21:14:25.608Z,8.90
2018-01-25T21:16:28.990Z,7.97
2018-01-25T21:18:32.348Z,9.40
2018-01-25T21:20:35.842Z,8.50
2018-01-25T21:22:40.013Z,8.33
2018-01-25T21:24:43.349Z,8.10
2018-01-25T21:26:47.424Z,8.03
2018-01-25T21:28:50.742Z,9.77
2018-01-25T21:30:54.852Z,7.50
2018-01-25T21:32:58.939Z,9.00
2018-01-25T21:35:02.284Z,8.63
2018-01-25T21:37:05.652Z,12.40
2018-01-25T21:39:09.756Z,8.07
2018-01-25T21:41:13.125Z,10.30
2018-01-25T21:43:19.104Z,13.27
2018-01-25T21:45:23.210Z,9.00
2018-01-25T21:47:27.346Z,8.90
2018-01-25T21:49:31.688Z,8.37
2018-01-25T21:51:35.560Z,6.93
2018-01-25T21:53:39.122Z,7.30
2018-01-25T21:55:43.332Z,6.37
2018-01-25T21:57:47.788Z,6.33
2018-01-25T21:59:51.116Z,6.10
2018-01-25T22:01:55.491Z,9.93
2018-01-25T22:03:59.071Z,7.13
2018-01-25T22:06:04.210Z,6.00
2018-01-25T22:08:09.320Z,5.33
2018-01-25T22:10:14.008Z,6.93
2018-01-25T22:12:18.518Z,8.53
2018-01-25T22:14:21.996Z,5.83
2018-01-25T22:16:25.566Z,7.33
2018-01-25T22:18:29.648Z,4.87
2018-01-25T22:20:34.460Z,6.50
2018-01-25T22:22:40.419Z,9.60
2018-01-25T22:24:48.809Z,6.37
2018-01-25T22:26:53.616Z,7.80
2018-01-25T22:28:57.060Z,8.30
2018-01-25T22:31:01.569Z,7.30
2018-01-25T22:33:05.188Z,8.63
2018-01-25T22:35:09.896Z,9.10
2018-01-25T22:37:13.242Z,13.60
2018-01-25T22:39:16.563Z,13.83
2018-01-25T22:41:19.869Z,7.80
2018-01-25T22:43:23.369Z,6.83
2018-01-25T22:45:26.877Z,6.10
2018-01-25T22:47:30.201Z,5.80
2018-01-25T22:49:33.816Z,6.00
2018-01-25T22:51:37.286Z,7.40
2018-01-25T22:53:41.148Z,5.80
2018-01-25T22:55:44.724Z,7.87
2018-01-25T22:57:48.398Z,8.37
2018-01-25T22:59:51.720Z,7.33
2018-01-25T23:01:55.066Z,10.07
2018-01-25T23:03:59.401Z,8.10
2018-01-25T23:06:02.728Z,10.47
2018-01-25T23:08:06.560Z,10.97
2018-01-25T23:10:10.643Z,10.53
2018-01-25T23:12:13.995Z,14.70
2018-01-25T23:14:17.341Z,15.20
2018-01-25T23:16:20.679Z,21.73
2018-01-25T23:18:24.514Z,15.93
2018-01-25T23:20:28.707Z,16.30
2018-01-25T23:22:32.887Z,10.03
2018-01-25T23:24:36.214Z,8.80
2018-01-25T23:26:40.071Z,9.47
2018-01-25T23:28:43.385Z,5.20
2018-01-25T23:30:47.616Z,10.77
2018-01-25T23:32:52.505Z,9.77
2018-01-25T23:34:55.811Z,6.10
2018-01-25T23:36:59.112Z,6.87
2018-01-25T23:39:02.451Z,7.67
2018-01-25T23:41:05.766Z,8.83
2018-01-25T23:43:09.228Z,6.93
2018-01-25T23:45:13.753Z,10.00
2018-01-25T23:47:19.769Z,9.90
2018-01-25T23:49:26.190Z,7.73
2018-01-25T23:51:30.721Z,7.77
2018-01-25T23:53:35.570Z,6.20
2018-01-25T23:55:39.710Z,9.90
2018-01-25T23:57:43.042Z,12.00
2018-01-25T23:59:47.589Z,11.73
